Lake Lynn, Pennsylvania
Current Conditions -  °F | °C
As of 10:53 AM on Monday 24 Nov 2014 (Local Time) from KMGW Reporting Station
Few Clouds Few Clouds  
Wind Chill: 69°   Ceiling: Unl
Heat Index: 69°   Visibility: 10mi
Dew Point: 42°   Wind: 16mph
Humidity: 38%   Direction: 210°SSW
Pressure: 29.5"   Gusts: 35mph
Location:  39.72°N, 79.86°W
Report Text: KMGW 241553Z 21014G30KT 180V260 10SM FEW070 21/06 A2950 RMK AO2 PK WND 22030/1550 SLP983 T02060056
Loading
Personal Weather Stations






























Interactive Weather Map New forecast layout! Learn more

10-Day Weather Forecast

Advertisements
Track Severe Weather on mobile